createdAt,value
2018-03-08T00:00:45.722Z,81.74
2018-03-08T00:03:26.520Z,81.73
2018-03-08T00:05:54.083Z,82.17
2018-03-08T00:08:21.586Z,82.61
2018-03-08T00:10:50.083Z,82.74
2018-03-08T00:13:20.994Z,82.87
2018-03-08T00:15:49.572Z,82.86
2018-03-08T00:18:17.693Z,83.26
2018-03-08T00:20:45.525Z,83.43
2018-03-08T00:23:14.637Z,83.31
2018-03-08T00:25:42.292Z,83.20
2018-03-08T00:28:09.745Z,83.40
2018-03-08T00:30:37.611Z,82.95
2018-03-08T00:33:05.053Z,82.74
2018-03-08T00:35:32.510Z,83.07
2018-03-08T00:38:01.019Z,83.06
2018-03-08T00:40:28.753Z,83.16
2018-03-08T00:42:57.228Z,83.13
2018-03-08T00:45:24.688Z,83.11
2018-03-08T00:50:24.099Z,82.65
2018-03-08T00:52:51.586Z,82.96
2018-03-08T00:55:19.027Z,82.94
2018-03-08T00:57:46.508Z,82.81
2018-03-08T01:00:14.987Z,82.78
2018-03-08T01:02:42.426Z,83.15
2018-03-08T01:05:09.904Z,83.11
2018-03-08T01:07:37.386Z,83.49
2018-03-08T01:10:04.848Z,83.56
2018-03-08T01:12:32.319Z,83.62
2018-03-08T01:14:59.754Z,84.01
2018-03-08T01:17:27.189Z,83.17
2018-03-08T01:19:54.688Z,82.52
2018-03-08T01:22:22.171Z,82.10
2018-03-08T01:24:49.656Z,82.33
2018-03-08T01:27:17.119Z,81.47
2018-03-08T01:29:44.577Z,81.19
2018-03-08T01:32:12.071Z,80.32
2018-03-08T01:34:39.568Z,80.25
2018-03-08T01:37:07.028Z,80.09
2018-03-08T01:39:34.503Z,80.44
2018-03-08T01:42:01.951Z,80.31
2018-03-08T01:44:29.399Z,79.73
2018-03-08T01:46:56.857Z,79.05
2018-03-08T01:49:24.312Z,79.43
2018-03-08T01:52:03.568Z,79.65
2018-03-08T01:54:31.068Z,78.96
2018-03-08T01:56:58.558Z,79.30
2018-03-08T01:59:26.049Z,78.69
2018-03-08T02:01:53.509Z,78.55
2018-03-08T02:04:21.507Z,78.85
2018-03-08T02:06:48.968Z,78.18
2018-03-08T02:09:16.422Z,78.07
2018-03-08T02:11:43.932Z,78.34
2018-03-08T02:14:11.385Z,78.52
2018-03-08T02:16:38.876Z,77.51
2018-03-08T02:19:06.309Z,77.47
2018-03-08T02:21:33.742Z,77.15
2018-03-08T02:24:01.237Z,77.12
2018-03-08T02:26:28.720Z,77.17
2018-03-08T02:28:56.190Z,77.88
2018-03-08T02:31:23.643Z,77.74
2018-03-08T02:33:51.118Z,76.71
2018-03-08T02:36:18.580Z,76.15
2018-03-08T02:38:46.090Z,76.20
2018-03-08T02:41:13.548Z,76.06
2018-03-08T02:43:41.009Z,75.55
2018-03-08T02:46:08.516Z,75.26
2018-03-08T02:48:35.973Z,75.15
2018-03-08T02:51:03.422Z,74.93
2018-03-08T02:53:30.953Z,74.85
2018-03-08T02:55:58.396Z,74.85
2018-03-08T02:58:25.872Z,74.89
2018-03-08T03:00:53.321Z,74.38
2018-03-08T03:03:21.747Z,75.09
2018-03-08T03:05:49.201Z,74.42
2018-03-08T03:08:16.681Z,74.41
2018-03-08T03:10:44.143Z,74.43
2018-03-08T03:13:11.652Z,74.03
2018-03-08T03:15:39.120Z,73.98
2018-03-08T03:18:06.570Z,73.69
2018-03-08T03:20:34.239Z,74.07
2018-03-08T03:23:01.712Z,74.33
2018-03-08T03:25:29.171Z,74.14
2018-03-08T03:27:56.639Z,74.46
2018-03-08T03:30:24.080Z,73.88
2018-03-08T03:32:52.174Z,74.08
2018-03-08T03:35:19.633Z,73.18
2018-03-08T03:37:47.066Z,73.53
2018-03-08T03:40:14.556Z,73.61
2018-03-08T03:42:42.013Z,73.63
2018-03-08T03:45:09.451Z,73.39
2018-03-08T03:47:36.907Z,73.24
2018-03-08T03:50:04.825Z,73.36
2018-03-08T03:52:32.625Z,72.85
2018-03-08T03:55:00.077Z,72.87
2018-03-08T03:57:27.531Z,72.40
2018-03-08T03:59:55.020Z,71.87
2018-03-08T04:02:22.460Z,71.91
2018-03-08T04:04:49.916Z,71.62
2018-03-08T04:07:17.374Z,71.49
2018-03-08T04:09:44.830Z,71.62
2018-03-08T04:12:13.553Z,71.09
2018-03-08T04:14:41.020Z,71.08
2018-03-08T04:17:09.494Z,71.52
2018-03-08T04:19:37.687Z,71.42
2018-03-08T04:22:05.146Z,71.25
2018-03-08T04:24:32.587Z,71.50
2018-03-08T04:27:00.037Z,71.46
2018-03-08T04:29:27.482Z,71.43
2018-03-08T04:31:54.914Z,71.70
2018-03-08T04:34:22.362Z,71.49
2018-03-08T04:36:49.815Z,71.05
2018-03-08T04:39:17.391Z,70.68
2018-03-08T04:41:44.832Z,70.36
2018-03-08T04:44:12.272Z,70.12
2018-03-08T04:46:39.734Z,70.05
2018-03-08T04:49:07.182Z,70.23
2018-03-08T04:51:34.611Z,70.15
2018-03-08T04:54:02.275Z,69.87
2018-03-08T04:56:30.577Z,69.69
2018-03-08T04:58:59.412Z,69.44
2018-03-08T05:01:26.877Z,69.68
2018-03-08T05:03:54.331Z,69.64
2018-03-08T05:06:21.755Z,69.33
2018-03-08T05:08:49.211Z,69.39
2018-03-08T05:11:16.672Z,69.21
2018-03-08T05:13:50.054Z,69.58
2018-03-08T05:16:17.546Z,69.31
2018-03-08T05:18:45.143Z,68.46
2018-03-08T05:21:12.624Z,68.69
2018-03-08T05:23:40.103Z,68.46
2018-03-08T05:26:08.388Z,68.51
2018-03-08T05:28:36.142Z,68.49
2018-03-08T05:31:03.618Z,68.46
2018-03-08T05:33:31.095Z,68.69
2018-03-08T05:35:58.607Z,68.65
2018-03-08T05:38:26.044Z,68.68
2018-03-08T05:40:53.491Z,68.90
2018-03-08T05:43:20.951Z,69.16
2018-03-08T05:45:48.441Z,69.18
2018-03-08T05:48:15.891Z,69.55
2018-03-08T05:50:44.792Z,69.22
2018-03-08T05:53:13.132Z,69.19
2018-03-08T05:55:40.695Z,68.99
2018-03-08T05:58:08.722Z,68.92
2018-03-08T06:00:36.197Z,69.19
2018-03-08T06:03:03.670Z,69.42
2018-03-08T06:05:31.116Z,69.26
2018-03-08T06:07:58.580Z,68.75
2018-03-08T06:10:26.047Z,68.84
2018-03-08T06:12:54.408Z,68.68
2018-03-08T06:15:21.867Z,68.98
2018-03-08T06:17:49.302Z,68.65
2018-03-08T06:20:16.788Z,68.41
2018-03-08T06:22:44.280Z,68.45
2018-03-08T06:25:13.130Z,68.15
2018-03-08T06:27:40.590Z,68.34
2018-03-08T06:30:08.048Z,68.40
2018-03-08T06:32:35.981Z,68.22
2018-03-08T06:35:04.197Z,67.90
2018-03-08T06:37:31.667Z,67.88
2018-03-08T06:39:59.154Z,67.94
2018-03-08T06:42:28.175Z,67.69
2018-03-08T06:44:55.653Z,67.28
2018-03-08T06:47:23.108Z,67.10
2018-03-08T06:49:50.563Z,67.24
2018-03-08T06:52:18.108Z,66.77
2018-03-08T06:54:45.557Z,66.34
2018-03-08T06:57:13.010Z,66.73
2018-03-08T06:59:40.473Z,65.90
2018-03-08T07:02:07.912Z,65.93
2018-03-08T07:04:35.362Z,65.91
2018-03-08T07:07:02.814Z,65.97
2018-03-08T07:09:30.256Z,65.97
2018-03-08T07:11:57.711Z,65.57
2018-03-08T07:14:25.199Z,65.70
2018-03-08T07:16:52.732Z,65.80
2018-03-08T07:19:20.164Z,65.56
2018-03-08T07:21:47.627Z,65.94
2018-03-08T07:24:15.078Z,65.40
2018-03-08T07:26:42.515Z,65.30
2018-03-08T07:29:10.009Z,65.34
2018-03-08T07:31:37.483Z,65.18
2018-03-08T07:34:04.931Z,65.30
2018-03-08T07:36:32.443Z,64.49
2018-03-08T07:38:59.884Z,64.10
2018-03-08T07:54:22.535Z,63.24
2018-03-08T07:56:50.038Z,61.78
2018-03-08T07:59:17.532Z,61.45
2018-03-08T08:01:44.990Z,61.16
2018-03-08T08:04:24.269Z,60.67
2018-03-08T08:09:54.806Z,60.16
2018-03-08T08:12:22.314Z,59.55
2018-03-08T08:14:49.766Z,58.81
2018-03-08T08:17:17.217Z,58.64
2018-03-08T08:19:44.667Z,57.50
2018-03-08T08:22:12.148Z,58.74
2018-03-08T08:24:39.670Z,58.62
2018-03-08T08:27:07.108Z,57.16
2018-03-08T08:29:34.593Z,57.01
2018-03-08T08:32:02.084Z,57.32
2018-03-08T08:34:29.723Z,57.70
2018-03-08T08:36:57.199Z,57.34
2018-03-08T08:39:24.674Z,56.82
2018-03-08T08:41:52.122Z,56.88
2018-03-08T08:44:19.623Z,56.20
2018-03-08T08:46:47.097Z,56.38
2018-03-08T08:49:14.567Z,56.07
2018-03-08T08:51:42.030Z,54.62
2018-03-08T08:54:09.584Z,54.93
2018-03-08T08:56:37.160Z,55.02
2018-03-08T08:59:04.608Z,54.64
2018-03-08T09:01:32.047Z,53.44
2018-03-08T09:03:59.497Z,54.53
2018-03-08T09:06:27.056Z,54.58
2018-03-08T09:08:54.517Z,54.87
2018-03-08T09:11:22.075Z,55.09
2018-03-08T09:13:49.536Z,54.48
2018-03-08T09:16:17.023Z,55.27
2018-03-08T09:18:45.624Z,55.29
2018-03-08T09:21:13.276Z,55.41
2018-03-08T09:23:44.938Z,56.16
2018-03-08T09:26:26.129Z,56.30
2018-03-08T09:28:55.868Z,55.96
2018-03-08T09:31:23.767Z,56.29
2018-03-08T09:33:51.616Z,56.46
2018-03-08T09:36:20.947Z,55.75
2018-03-08T09:43:56.663Z,55.19
2018-03-08T09:46:25.956Z,55.76
2018-03-08T09:48:54.992Z,55.47
2018-03-08T09:54:00.901Z,55.21
2018-03-08T10:01:51.799Z,54.44
2018-03-08T10:06:54.821Z,54.18
2018-03-08T10:11:57.560Z,54.33
2018-03-08T10:17:12.145Z,54.90
2018-03-08T10:19:41.370Z,54.78
2018-03-08T10:29:54.628Z,54.04
2018-03-08T10:32:23.892Z,53.09
2018-03-08T10:34:51.957Z,52.29
2018-03-08T10:50:05.663Z,48.98
2018-03-08T10:52:34.932Z,49.24
2018-03-08T10:55:02.797Z,48.86
2018-03-08T10:57:34.476Z,49.58
2018-03-08T11:02:46.263Z,48.86
2018-03-08T11:05:13.991Z,48.55
2018-03-08T11:07:43.675Z,48.77
2018-03-08T11:12:45.974Z,47.33
2018-03-08T11:15:15.815Z,47.93
2018-03-08T11:20:17.728Z,47.49
2018-03-08T11:25:23.962Z,48.47
2018-03-08T11:30:25.630Z,48.24
2018-03-08T11:32:53.135Z,48.16
2018-03-08T11:35:20.676Z,47.52
2018-03-08T11:37:48.186Z,47.49
2018-03-08T11:40:15.940Z,48.27
2018-03-08T11:42:43.846Z,47.82
2018-03-08T11:45:11.355Z,47.66
2018-03-08T11:47:38.860Z,47.61
2018-03-08T11:50:06.368Z,46.92
2018-03-08T11:52:33.836Z,47.55
2018-03-08T11:55:01.374Z,47.59
2018-03-08T11:57:28.896Z,48.48
2018-03-08T11:59:56.454Z,49.29
2018-03-08T12:02:23.949Z,48.68
2018-03-08T12:04:51.437Z,48.88
2018-03-08T12:07:18.962Z,48.13
2018-03-08T12:09:46.547Z,47.56
2018-03-08T12:12:14.092Z,48.27
2018-03-08T12:14:41.649Z,48.13
2018-03-08T12:17:09.183Z,48.41
2018-03-08T12:19:36.696Z,47.99
2018-03-08T12:22:04.171Z,45.66
2018-03-08T12:24:31.664Z,46.18
2018-03-08T12:26:59.512Z,45.97
2018-03-08T12:29:27.024Z,46.35
2018-03-08T12:31:54.541Z,46.03
2018-03-08T12:34:23.017Z,45.91
2018-03-08T12:36:50.533Z,45.58
2018-03-08T12:39:18.176Z,45.73
2018-03-08T12:41:46.121Z,45.86
2018-03-08T12:44:14.041Z,45.35
2018-03-08T12:46:41.596Z,45.18
2018-03-08T12:49:09.109Z,44.93
2018-03-08T12:51:36.802Z,44.98
2018-03-08T12:54:04.944Z,45.39
2018-03-08T12:56:33.159Z,45.01
2018-03-08T12:59:00.802Z,44.90
2018-03-08T13:01:28.756Z,44.90
2018-03-08T13:03:56.520Z,44.87
2018-03-08T13:06:24.619Z,44.71
2018-03-08T13:08:52.210Z,44.96
2018-03-08T13:11:20.371Z,45.44
2018-03-08T13:13:47.922Z,45.91
2018-03-08T13:16:15.752Z,45.36
2018-03-08T13:18:44.500Z,45.63
2018-03-08T13:21:12.057Z,46.02
2018-03-08T13:23:39.718Z,46.61
2018-03-08T13:26:07.303Z,46.88
2018-03-08T13:28:34.875Z,46.38
2018-03-08T13:31:02.503Z,46.16
2018-03-08T13:33:30.032Z,46.00
2018-03-08T13:35:57.596Z,43.69
2018-03-08T13:38:25.229Z,42.56
2018-03-08T13:40:52.848Z,43.23
2018-03-08T13:43:20.699Z,44.13
2018-03-08T13:45:48.372Z,45.01
2018-03-08T13:48:16.207Z,44.71
2018-03-08T13:50:44.159Z,44.22
2018-03-08T13:53:11.645Z,43.92
2018-03-08T13:55:39.704Z,44.34
2018-03-08T13:58:07.291Z,43.95
2018-03-08T14:00:34.832Z,42.18
2018-03-08T14:03:06.385Z,42.83
2018-03-08T14:05:34.602Z,42.60
2018-03-08T14:08:02.178Z,42.07
2018-03-08T14:10:30.446Z,40.08
2018-03-08T14:12:58.032Z,39.18
2018-03-08T14:15:25.701Z,38.88
2018-03-08T14:17:53.853Z,38.12
2018-03-08T14:20:21.362Z,36.59
2018-03-08T14:22:48.998Z,35.84
2018-03-08T14:25:16.639Z,35.05
2018-03-08T14:27:44.306Z,34.26
2018-03-08T14:30:11.781Z,34.74
2018-03-08T14:32:39.396Z,33.90
2018-03-08T14:35:07.255Z,34.25
2018-03-08T14:37:35.212Z,33.02
2018-03-08T14:40:02.787Z,32.91
2018-03-08T14:42:30.574Z,32.44
2018-03-08T14:44:58.236Z,33.57
2018-03-08T14:47:25.815Z,33.46
2018-03-08T14:49:53.326Z,33.63
2018-03-08T14:52:20.767Z,33.91
2018-03-08T14:54:48.248Z,33.46
2018-03-08T14:57:16.326Z,33.23
2018-03-08T14:59:43.898Z,33.02
2018-03-08T15:02:11.567Z,31.40
2018-03-08T15:04:39.038Z,32.58
2018-03-08T15:07:06.515Z,33.62
2018-03-08T15:09:33.989Z,32.81
2018-03-08T15:12:01.506Z,32.03
2018-03-08T15:14:29.129Z,30.28
2018-03-08T15:16:56.644Z,29.10
2018-03-08T15:19:24.109Z,29.28
2018-03-08T15:21:51.587Z,29.95
2018-03-08T15:24:19.093Z,29.46
2018-03-08T15:26:46.561Z,29.37
2018-03-08T15:29:14.080Z,29.04
2018-03-08T15:31:41.567Z,29.53
2018-03-08T15:34:09.111Z,28.94
2018-03-08T15:36:36.637Z,28.85
2018-03-08T15:39:04.244Z,27.75
2018-03-08T15:41:31.738Z,27.98
2018-03-08T15:43:59.444Z,29.16
2018-03-08T15:46:27.460Z,29.10
2018-03-08T15:48:54.984Z,30.30
2018-03-08T15:51:22.533Z,29.54
2018-03-08T15:53:50.009Z,29.96
2018-03-08T15:56:17.503Z,29.83
2018-03-08T15:58:45.008Z,29.77
2018-03-08T16:01:12.500Z,30.24
2018-03-08T16:03:40.029Z,30.73
2018-03-08T16:06:07.504Z,31.76
2018-03-08T16:09:06.606Z,31.35
2018-03-08T16:11:34.101Z,31.31
2018-03-08T16:14:01.632Z,32.02
2018-03-08T16:16:29.878Z,31.79
2018-03-08T16:18:57.380Z,32.76
2018-03-08T16:21:24.933Z,34.22
2018-03-08T16:23:52.407Z,36.00
2018-03-08T16:26:19.868Z,37.58
2018-03-08T16:28:47.412Z,38.74
2018-03-08T16:31:14.974Z,39.71
2018-03-08T16:33:42.418Z,40.61
2018-03-08T16:36:09.881Z,41.38
2018-03-08T16:38:37.376Z,42.07
2018-03-08T16:41:04.834Z,42.34
2018-03-08T16:43:32.359Z,42.97
2018-03-08T16:45:59.846Z,43.53
2018-03-08T16:48:29.019Z,43.92
2018-03-08T16:50:56.476Z,44.18
2018-03-08T16:53:23.962Z,44.82
2018-03-08T16:55:51.428Z,45.60
2018-03-08T16:58:18.989Z,46.24
2018-03-08T17:00:46.585Z,46.66
2018-03-08T17:03:14.283Z,47.01
2018-03-08T17:05:41.824Z,47.49
2018-03-08T17:08:09.310Z,47.97
2018-03-08T17:10:36.818Z,47.78
2018-03-08T17:13:04.398Z,48.22
2018-03-08T17:15:31.885Z,48.67
2018-03-08T17:17:59.364Z,49.19
2018-03-08T17:20:26.844Z,49.05
2018-03-08T17:22:54.305Z,49.32
2018-03-08T17:25:21.811Z,49.34
2018-03-08T17:27:49.357Z,49.05
2018-03-08T17:30:16.824Z,49.14
2018-03-08T17:32:44.315Z,49.68
2018-03-08T17:35:13.787Z,49.72
2018-03-08T17:37:41.253Z,49.93
2018-03-08T17:40:08.743Z,49.32
2018-03-08T17:42:36.265Z,49.49
2018-03-08T17:47:37.595Z,48.66
2018-03-08T17:50:05.079Z,49.62
2018-03-08T17:52:32.622Z,50.18
2018-03-08T17:55:00.229Z,51.25
2018-03-08T17:57:27.766Z,52.06
2018-03-08T17:59:55.282Z,52.37
2018-03-08T18:02:22.768Z,52.24
2018-03-08T18:04:50.327Z,52.89
2018-03-08T18:07:17.958Z,53.35
2018-03-08T18:09:45.731Z,53.43
2018-03-08T18:12:13.315Z,53.78
2018-03-08T18:14:40.982Z,53.87
2018-03-08T18:17:08.515Z,54.78
2018-03-08T18:19:36.054Z,55.42
2018-03-08T18:22:03.529Z,56.75
2018-03-08T18:24:31.020Z,57.91
2018-03-08T18:26:58.520Z,58.40
2018-03-08T18:29:26.023Z,58.88
2018-03-08T18:31:53.538Z,60.22
2018-03-08T18:34:21.060Z,60.95
2018-03-08T18:36:48.561Z,61.20
2018-03-08T18:39:16.869Z,62.15
2018-03-08T18:41:44.340Z,63.39
2018-03-08T18:44:11.885Z,63.83
2018-03-08T18:46:39.353Z,65.05
2018-03-08T18:49:06.852Z,65.76
2018-03-08T18:51:34.560Z,65.79
2018-03-08T18:54:02.059Z,65.96
2018-03-08T18:56:30.696Z,66.47
2018-03-08T18:58:58.140Z,66.74
2018-03-08T19:01:25.678Z,67.26
2018-03-08T19:03:53.214Z,67.78
2018-03-08T19:06:20.792Z,68.18
2018-03-08T19:08:48.301Z,68.59
2018-03-08T19:11:15.867Z,69.03
2018-03-08T19:13:43.476Z,69.65
2018-03-08T19:16:11.005Z,70.41
2018-03-08T19:18:38.497Z,70.73
2018-03-08T19:21:06.020Z,71.53
2018-03-08T19:23:37.610Z,71.81
2018-03-08T19:26:05.140Z,72.69
2018-03-08T19:28:33.570Z,72.70
2018-03-08T19:31:01.276Z,73.25
2018-03-08T19:33:28.825Z,73.41
2018-03-08T19:35:56.436Z,73.29
2018-03-08T19:38:23.960Z,74.00
2018-03-08T19:40:51.440Z,74.17
2018-03-08T19:43:18.936Z,74.49
2018-03-08T19:45:46.560Z,75.17
2018-03-08T19:48:14.120Z,75.55
2018-03-08T19:50:42.787Z,75.77
2018-03-08T19:53:10.297Z,76.13
2018-03-08T19:55:37.800Z,75.78
2018-03-08T19:58:05.326Z,76.16
2018-03-08T20:00:32.853Z,76.35
2018-03-08T20:03:00.455Z,76.73
2018-03-08T20:05:28.050Z,76.87
2018-03-08T20:07:55.591Z,77.15
2018-03-08T20:10:23.876Z,77.37
2018-03-08T20:12:51.360Z,77.23
2018-03-08T20:15:18.835Z,77.22
2018-03-08T20:17:46.401Z,77.62
2018-03-08T20:20:13.941Z,77.74
2018-03-08T20:22:41.588Z,77.55
2018-03-08T20:25:09.206Z,77.14
2018-03-08T20:27:36.710Z,77.28
2018-03-08T20:30:04.284Z,77.47
2018-03-08T20:32:34.528Z,77.60
2018-03-08T20:35:01.985Z,77.88
2018-03-08T20:37:29.533Z,78.40
2018-03-08T20:39:57.113Z,78.89
2018-03-08T20:42:25.465Z,79.55
2018-03-08T20:44:52.990Z,79.64
2018-03-08T20:47:22.609Z,79.55
2018-03-08T20:49:50.094Z,79.61
2018-03-08T20:52:17.615Z,79.71
2018-03-08T20:54:45.103Z,79.98
2018-03-08T20:57:12.621Z,80.28
2018-03-08T20:59:40.150Z,79.89
2018-03-08T21:02:07.656Z,80.14
2018-03-08T21:04:36.191Z,80.28
2018-03-08T21:07:03.903Z,80.63
2018-03-08T21:22:26.544Z,81.95
2018-03-08T21:24:54.023Z,82.21
2018-03-08T21:27:21.579Z,82.50
2018-03-08T21:29:49.139Z,82.49
2018-03-08T21:32:18.066Z,82.50
2018-03-08T21:34:45.565Z,82.41
2018-03-08T21:37:13.107Z,82.31
2018-03-08T21:39:40.611Z,82.45
2018-03-08T21:42:08.140Z,82.62
2018-03-08T21:44:35.651Z,82.40
2018-03-08T21:47:04.400Z,81.80
2018-03-08T21:49:31.955Z,82.03
2018-03-08T21:51:59.467Z,82.66
2018-03-08T21:54:28.303Z,82.87
2018-03-08T21:57:10.130Z,82.95
2018-03-08T21:59:37.657Z,83.09
2018-03-08T22:02:06.277Z,83.17
2018-03-08T22:07:08.165Z,83.32
2018-03-08T22:09:35.640Z,83.64
2018-03-08T22:12:03.271Z,83.83
2018-03-08T22:14:32.329Z,83.85
2018-03-08T22:16:59.872Z,83.91
2018-03-08T22:19:27.384Z,84.24
2018-03-08T22:21:54.881Z,84.39
2018-03-08T22:24:22.429Z,84.70
2018-03-08T22:26:49.947Z,85.01
2018-03-08T22:29:17.416Z,85.48
2018-03-08T22:31:45.041Z,85.53
2018-03-08T22:34:13.068Z,85.51
2018-03-08T22:36:40.704Z,85.57
2018-03-08T22:39:08.175Z,85.59
2018-03-08T22:41:35.852Z,85.44
2018-03-08T22:44:03.327Z,85.36
2018-03-08T22:46:30.871Z,85.04
2018-03-08T22:48:58.381Z,84.81
2018-03-08T22:51:25.891Z,84.82
2018-03-08T22:53:54.980Z,84.93
2018-03-08T22:56:22.563Z,85.06
2018-03-08T22:58:50.128Z,85.16
2018-03-08T23:04:17.967Z,85.70
2018-03-08T23:06:45.647Z,85.87
2018-03-08T23:09:13.234Z,85.82
2018-03-08T23:11:40.749Z,85.90
2018-03-08T23:14:08.249Z,85.91
2018-03-08T23:16:36.047Z,85.92
2018-03-08T23:19:03.610Z,85.93
2018-03-08T23:21:31.100Z,86.05
2018-03-08T23:23:58.639Z,86.22
2018-03-08T23:26:26.236Z,86.34
2018-03-08T23:28:53.756Z,86.42
2018-03-08T23:31:21.239Z,86.28
2018-03-08T23:33:48.717Z,86.22
2018-03-08T23:36:16.193Z,86.23
2018-03-08T23:38:43.752Z,86.24
2018-03-08T23:41:12.908Z,86.12
2018-03-08T23:43:42.148Z,85.95
2018-03-08T23:46:09.659Z,85.77
2018-03-08T23:48:37.223Z,85.79
2018-03-08T23:51:04.831Z,85.83
2018-03-08T23:53:32.298Z,85.92
2018-03-08T23:55:59.822Z,85.78
2018-03-08T23:58:27.337Z,85.50
